Time;durP1;ratioP1;P1;durP2;ratioP2;P2;SDS_P1;SDS_P2;PMS_P1;PMS_P2;Temp;Humidity;BMP_temperature;BMP_pressure;BME280_temperature;BME280_humidity;BME280_pressure;Samples;Min_cycle;Max_cycle;Signal;HPM_P1;HPM_P2
2021/08/11 00:01:59;;;;;;;1.10;0.70;;;;;;;21.96;51.05;100113.93;1756354;80;21110;-63
2021/08/11 00:04:25;;;;;;;;;;;;;;;21.89;51.28;100107.95;1763343;80;21098;-66
2021/08/11 00:06:51;;;;;;;0.57;0.55;;;;;;;21.83;51.55;100106.84;1755212;80;20129;-67
2021/08/11 00:09:17;;;;;;;3.83;1.27;;;;;;;21.74;52.00;100103.86;1761146;80;20985;-63
2021/08/11 00:11:46;;;;;;;0.55;0.55;;;;;;;21.73;52.15;100111.70;1760312;80;21007;-64
2021/08/11 00:14:12;;;;;;;1.95;0.75;;;;;;;21.70;52.23;100113.06;1752013;81;21049;-65
2021/08/11 00:16:40;;;;;;;0.62;0.47;;;;;;;21.71;52.45;100109.80;1747389;80;21116;-68
2021/08/11 00:19:07;;;;;;;1.07;0.55;;;;;;;21.49;52.62;100070.69;1761401;80;21101;-67
2021/08/11 00:21:33;;;;;;;0.68;0.60;;;;;;;21.74;52.75;100095.72;1760022;80;21045;-64
2021/08/11 00:23:59;;;;;;;1.82;1.10;;;;;;;21.74;52.86;100101.95;1751478;80;21051;-65
2021/08/11 00:26:26;;;;;;;0.80;0.80;;;;;;;21.73;52.81;100105.73;1719470;82;21134;-65
2021/08/11 00:28:52;;;;;;;1.35;1.05;;;;;;;21.74;52.90;100099.78;1716924;82;21035;-63
2021/08/11 00:31:18;;;;;;;1.10;1.02;;;;;;;21.74;53.00;100103.86;1748747;81;21568;-64
2021/08/11 00:33:45;;;;;;;1.02;0.75;;;;;;;21.75;53.18;100112.25;1723052;81;20965;-65
2021/08/11 00:36:13;;;;;;;0.98;0.50;;;;;;;21.74;53.18;100101.95;1777374;79;21032;-67
2021/08/11 00:38:41;;;;;;;0.72;0.68;;;;;;;21.72;53.24;100106.02;1776458;79;21168;-65
2021/08/11 00:41:09;;;;;;;3.90;1.00;;;;;;;21.70;53.17;100100.02;1764892;79;22176;-67
2021/08/11 00:43:36;;;;;;;2.85;0.68;;;;;;;21.69;53.35;100094.34;1780544;79;20992;-68
2021/08/11 00:46:07;;;;;;;1.80;1.22;;;;;;;21.68;53.51;100090.82;1761818;79;20985;-64
2021/08/11 00:48:33;;;;;;;0.93;0.70;;;;;;;21.67;53.49;100085.66;1776230;79;20993;-65
2021/08/11 00:51:00;;;;;;;1.30;1.27;;;;;;;21.66;53.63;100089.44;1777269;79;21534;-67
2021/08/11 00:53:27;;;;;;;1.10;1.10;;;;;;;21.65;53.68;100089.19;1785065;79;21031;-65
2021/08/11 00:55:59;;;;;;;0.68;0.68;;;;;;;21.62;53.68;100097.84;1768206;79;21017;-64
2021/08/11 00:58:27;;;;;;;1.00;0.90;;;;;;;21.58;53.76;100098.37;1775700;80;21029;-67
2021/08/11 01:00:57;;;;;;;1.57;1.20;;;;;;;21.57;53.80;100093.23;1753916;80;20985;-65
2021/08/11 01:03:27;;;;;;;1.47;1.20;;;;;;;21.53;53.89;100088.89;1738152;81;21007;-67
2021/08/11 01:05:58;;;;;;;1.25;1.15;;;;;;;21.49;53.84;100091.03;1742782;81;20992;-64
2021/08/11 01:08:29;;;;;;;1.20;1.20;;;;;;;21.41;53.91;100089.62;1740770;81;22200;-65
2021/08/11 01:10:58;;;;;;;4.87;1.30;;;;;;;21.35;54.05;100086.62;1739562;81;21022;-66
2021/08/11 01:13:26;;;;;;;1.82;1.20;;;;;;;21.27;54.26;100089.31;1707342;82;20997;-66
2021/08/11 01:15:55;;;;;;;1.07;1.05;;;;;;;21.23;54.68;100094.16;1689382;84;21107;-68
2021/08/11 01:18:23;;;;;;;2.33;1.47;;;;;;;21.19;54.79;100089.28;1711265;82;21634;-68
2021/08/11 01:20:58;;;;;;;3.20;1.50;;;;;;;21.16;54.74;100083.02;1714034;82;21099;-66
2021/08/11 01:23:31;;;;;;;1.98;1.67;;;;;;;21.12;54.67;100081.13;1695410;83;21033;-68
2021/08/11 01:26:08;;;;;;;1.50;1.40;;;;;;;21.03;54.68;100069.16;1680658;84;21511;-67
2021/08/11 01:28:54;;;;;;;1.70;1.60;;;;;;;20.95;54.93;100067.77;1676308;84;21010;-67
2021/08/11 01:31:26;;;;;;;1.87;0.90;;;;;;;20.90;55.14;100071.25;1663773;85;21030;-63
2021/08/11 01:34:19;;;;;;;1.47;1.30;;;;;;;20.85;55.38;100077.19;1656740;85;21012;-65
2021/08/11 01:37:02;;;;;;;1.90;1.55;;;;;;;20.80;55.73;100084.21;1699356;83;21504;-64
2021/08/11 01:39:37;;;;;;;2.87;1.55;;;;;;;20.77;55.63;100084.72;1677379;84;21341;-65
2021/08/11 01:42:12;;;;;;;1.75;1.65;;;;;;;20.74;55.75;100082.56;1694581;83;21077;-64
2021/08/11 01:45:00;;;;;;;1.70;1.57;;;;;;;20.71;55.91;100076.30;1700916;83;21023;-64
2021/08/11 01:47:35;;;;;;;2.10;2.00;;;;;;;20.69;56.26;100077.10;1708256;83;20990;-64
2021/08/11 01:50:04;;;;;;;2.37;1.75;;;;;;;20.69;56.34;100081.72;1691194;84;21072;-64
2021/08/11 01:52:30;;;;;;;2.00;1.85;;;;;;;20.67;56.53;100079.26;1683255;84;21060;-63
2021/08/11 01:54:58;;;;;;;3.35;1.60;;;;;;;20.67;56.63;100083.88;1684329;84;21041;-65
2021/08/11 01:57:26;;;;;;;1.57;1.45;;;;;;;20.64;56.65;100083.84;1653135;85;21041;-64
2021/08/11 01:59:54;;;;;;;1.47;1.27;;;;;;;20.63;56.78;100087.64;1658601;85;21041;-65
2021/08/11 02:02:22;;;;;;;1.85;1.75;;;;;;;20.65;57.07;100081.42;1686635;84;21020;-64
2021/08/11 02:04:50;;;;;;;2.83;1.65;;;;;;;20.61;57.35;100081.67;1718879;82;21102;-63
2021/08/11 02:07:18;;;;;;;2.77;1.87;;;;;;;20.55;57.62;100088.08;1707195;82;21572;-64
2021/08/11 02:09:48;;;;;;;1.87;1.65;;;;;;;20.50;58.03;100092.13;1685271;84;21094;-63
2021/08/11 02:12:15;;;;;;;2.90;1.45;;;;;;;20.46;58.29;100091.02;1692011;82;21024;-62
2021/08/11 02:14:46;;;;;;;1.52;1.42;;;;;;;20.48;58.59;100099.69;1686448;84;20981;-62
2021/08/11 02:17:14;;;;;;;1.80;1.70;;;;;;;20.50;58.52;100100.24;1682567;84;21070;-64
2021/08/11 02:19:41;;;;;;;3.60;1.10;;;;;;;20.49;58.74;100102.66;1684571;84;21037;-66
2021/08/11 02:22:07;;;;;;;1.50;1.40;;;;;;;20.47;58.90;100106.16;1689182;83;21033;-66
2021/08/11 02:24:37;;;;;;;4.17;1.70;;;;;;;20.43;58.95;100107.22;1713664;82;21022;-65
2021/08/11 02:27:21;;;;;;;2.35;2.22;;;;;;;20.42;59.24;100108.31;1684074;84;21028;-66
2021/08/11 02:30:13;;;;;;;1.90;1.80;;;;;;;20.38;59.31;100108.02;1707130;82;20981;-65
2021/08/11 02:33:01;;;;;;;2.33;1.72;;;;;;;20.32;59.45;100111.73;1721672;82;21156;-62
2021/08/11 02:35:41;;;;;;;6.03;2.45;;;;;;;20.27;59.73;100123.05;1715713;82;21036;-63
2021/08/11 02:38:13;;;;;;;2.40;2.02;;;;;;;20.26;59.88;100112.77;1738393;81;21118;-66
2021/08/11 02:40:46;;;;;;;1.52;1.42;;;;;;;20.31;59.73;100111.47;1738941;81;21165;-66
2021/08/11 02:43:34;;;;;;;1.92;1.62;;;;;;;20.35;59.75;100111.77;1719790;82;21076;-66
2021/08/11 02:46:11;;;;;;;2.62;2.12;;;;;;;20.34;59.75;100117.73;1738581;81;21008;-65
2021/08/11 02:48:39;;;;;;;2.08;1.98;;;;;;;20.32;59.68;100117.14;1701166;83;21535;-63
2021/08/11 02:51:09;;;;;;;3.05;2.10;;;;;;;20.29;59.73;100120.93;1740161;81;21005;-63
2021/08/11 02:53:38;;;;;;;2.00;1.90;;;;;;;20.24;60.04;100124.39;1713896;82;21045;-62
2021/08/11 02:56:05;;;;;;;2.37;1.65;;;;;;;20.23;60.14;100124.13;1719262;81;21054;-65
2021/08/11 02:58:35;;;;;;;2.77;1.98;;;;;;;20.22;59.97;100125.19;1747157;81;21017;-65
2021/08/11 03:01:04;;;;;;;1.72;1.62;;;;;;;20.22;59.86;100120.59;1743935;81;20950;-67
2021/08/11 03:03:32;;;;;;;1.98;1.87;;;;;;;20.27;59.83;100119.83;1714828;82;21055;-66
2021/08/11 03:06:00;;;;;;;2.12;1.90;;;;;;;20.38;59.65;100114.78;1717025;81;21551;-65
2021/08/11 03:08:28;;;;;;;2.10;2.00;;;;;;;20.51;59.32;100124.36;1720152;82;21017;-65
2021/08/11 03:10:56;;;;;;;3.33;2.22;;;;;;;20.65;58.86;100119.88;1727217;82;21468;-65
2021/08/11 03:13:25;;;;;;;2.95;1.67;;;;;;;20.80;58.52;100122.13;1712484;82;21046;-65
2021/08/11 03:15:52;;;;;;;5.35;2.33;;;;;;;20.98;58.15;100121.41;1713978;82;20994;-66
2021/08/11 03:18:19;;;;;;;1.65;1.55;;;;;;;21.23;57.46;100126.68;1735105;81;21073;-67
2021/08/11 03:20:47;;;;;;;1.35;1.27;;;;;;;21.48;56.61;100121.41;1701670;82;21577;-65
2021/08/11 03:23:14;;;;;;;2.40;1.95;;;;;;;21.74;55.92;100120.13;1677262;84;21193;-65
2021/08/11 03:25:43;;;;;;;5.97;2.10;;;;;;;22.01;54.69;100121.80;1683215;84;21523;-63
2021/08/11 03:28:11;;;;;;;4.35;1.67;;;;;;;22.20;53.87;100119.38;1683939;84;21015;-66
2021/08/11 03:30:39;;;;;;;1.52;1.42;;;;;;;22.29;53.39;100121.30;1681616;84;21084;-63
2021/08/11 03:33:06;;;;;;;1.85;1.62;;;;;;;22.44;53.23;100121.03;1683948;84;21037;-66
2021/08/11 03:35:34;;;;;;;2.15;1.65;;;;;;;22.72;52.72;100122.36;1710953;83;21082;-66
2021/08/11 03:38:01;;;;;;;3.15;1.72;;;;;;;23.08;51.52;100125.02;1703095;83;21019;-67
2021/08/11 03:40:29;;;;;;;2.75;1.70;;;;;;;23.44;50.90;100127.04;1710762;82;21502;-67
2021/08/11 03:42:58;;;;;;;3.00;2.08;;;;;;;23.77;50.17;100120.62;1715382;83;21160;-65
2021/08/11 03:45:25;;;;;;;1.75;1.65;;;;;;;24.08;49.24;100120.44;1666210;84;21469;-63
2021/08/11 03:47:51;;;;;;;3.83;1.67;;;;;;;24.36;48.52;100128.94;1672162;84;21059;-65
2021/08/11 03:50:21;;;;;;;1.50;1.40;;;;;;;24.67;47.65;100124.03;1729226;82;20998;-67
2021/08/11 03:52:48;;;;;;;2.83;1.80;;;;;;;24.86;47.18;100122.75;1702134;83;21153;-67
2021/08/11 03:55:17;;;;;;;4.30;2.60;;;;;;;25.06;46.92;100119.00;1693719;84;21156;-67
2021/08/11 03:57:43;;;;;;;5.78;1.27;;;;;;;25.29;46.66;100117.38;1704945;84;21034;-67
2021/08/11 04:00:13;;;;;;;1.35;1.35;;;;;;;25.58;45.77;100113.72;1698540;83;21110;-66
2021/08/11 04:02:42;;;;;;;2.30;2.20;;;;;;;25.80;45.08;100109.05;1703042;83;21011;-66
2021/08/11 04:05:09;;;;;;;4.10;1.55;;;;;;;25.88;45.07;100098.02;1683934;84;21092;-66
2021/08/11 04:07:36;;;;;;;3.20;1.30;;;;;;;26.03;44.57;100106.83;1684901;84;21023;-66
2021/08/11 04:10:07;;;;;;;17.65;2.47;;;;;;;26.23;44.40;100111.13;1716764;82;21095;-66
2021/08/11 04:12:34;;;;;;;8.95;2.50;;;;;;;26.50;43.73;100115.03;1678925;84;21033;-67
2021/08/11 04:15:02;;;;;;;1.95;1.62;;;;;;;26.67;43.26;100112.32;1688146;84;21541;-65
2021/08/11 04:17:28;;;;;;;4.28;1.62;;;;;;;26.90;43.04;100109.98;1714694;82;21506;-63
2021/08/11 04:19:56;;;;;;;1.22;1.22;;;;;;;27.26;42.36;100107.92;1708805;83;21011;-66
2021/08/11 04:22:24;;;;;;;1.05;1.02;;;;;;;27.56;41.63;100109.18;1710775;81;21100;-64
2021/08/11 04:24:50;;;;;;;1.70;1.60;;;;;;;27.71;41.48;100112.70;1746071;81;21152;-64
2021/08/11 04:27:16;;;;;;;1.42;1.30;;;;;;;27.78;41.02;100106.22;1748421;81;21037;-65
2021/08/11 04:29:44;;;;;;;1.40;1.30;;;;;;;27.73;41.19;100104.98;1743056;81;21574;-67
2021/08/11 04:32:10;;;;;;;1.95;1.27;;;;;;;27.61;41.82;100097.30;1754364;81;21137;-62
2021/08/11 04:34:36;;;;;;;3.52;1.67;;;;;;;27.65;41.45;100098.32;1750167;81;21017;-66
2021/08/11 04:37:03;;;;;;;4.30;1.80;;;;;;;27.76;41.70;100102.45;1747881;80;21190;-65
2021/08/11 04:39:29;;;;;;;1.52;1.10;;;;;;;27.94;41.06;100105.34;1748913;81;21477;-61
2021/08/11 04:41:55;;;;;;;2.47;1.50;;;;;;;28.10;40.87;100101.66;1748268;81;21013;-63
2021/08/11 04:44:22;;;;;;;1.40;1.30;;;;;;;28.15;40.61;100106.45;1744429;81;21017;-67
2021/08/11 04:46:48;;;;;;;1.05;1.05;;;;;;;28.17;40.56;100108.09;1744336;81;20989;-64
2021/08/11 04:49:15;;;;;;;1.45;1.02;;;;;;;28.20;41.13;100108.27;1744687;81;21527;-65
2021/08/11 04:51:41;;;;;;;1.30;1.15;;;;;;;28.39;40.24;100113.55;1748883;81;21591;-65
2021/08/11 04:54:07;;;;;;;3.55;1.75;;;;;;;28.48;40.63;100110.30;1743305;81;21081;-65
2021/08/11 04:56:33;;;;;;;3.55;1.22;;;;;;;28.71;39.61;100106.17;1744089;81;21571;-65
2021/08/11 04:58:59;;;;;;;1.10;1.10;;;;;;;28.76;40.06;100108.75;1742455;81;21600;-66
2021/08/11 05:01:26;;;;;;;1.32;1.32;;;;;;;29.06;39.38;100101.59;1743681;81;21016;-63
2021/08/11 05:03:52;;;;;;;1.77;1.52;;;;;;;29.33;38.37;100101.70;1711673;82;21006;-66
2021/08/11 05:06:19;;;;;;;1.45;1.00;;;;;;;29.49;38.12;100101.48;1709181;83;21054;-67
2021/08/11 05:08:46;;;;;;;1.17;1.07;;;;;;;29.48;38.73;100095.77;1685518;84;21495;-66
2021/08/11 05:11:12;;;;;;;2.58;1.02;;;;;;;29.61;38.04;100096.72;1748364;80;21052;-66
2021/08/11 05:13:39;;;;;;;5.20;1.10;;;;;;;29.67;37.62;100100.95;1770928;79;21519;-65
2021/08/11 05:16:05;;;;;;;1.47;1.20;;;;;;;29.64;38.05;100094.14;1771026;80;21005;-65
2021/08/11 05:18:31;;;;;;;1.90;0.88;;;;;;;29.68;37.92;100092.36;1775231;80;21069;-65
2021/08/11 05:20:57;;;;;;;3.67;1.75;;;;;;;29.60;38.18;100098.67;1746999;80;20998;-66
2021/08/11 05:23:24;;;;;;;3.90;1.40;;;;;;;29.52;38.15;100091.25;1733529;81;21005;-67
2021/08/11 05:25:50;;;;;;;1.52;1.50;;;;;;;29.23;38.99;100083.03;1730532;81;21096;-67
2021/08/11 05:28:16;;;;;;;1.57;1.47;;;;;;;29.03;39.39;100077.56;1762869;80;21045;-69
2021/08/11 05:30:42;;;;;;;2.15;1.25;;;;;;;28.77;40.09;100076.67;1765522;80;21001;-67
2021/08/11 05:33:09;;;;;;;3.83;1.67;;;;;;;28.52;40.95;100078.42;1763042;80;21068;-64
2021/08/11 05:37:01;;;;;;;;;;;;;;;28.63;40.74;100069.91;1776295;79;22891;-67
2021/08/11 05:39:27;;;;;;;4.22;1.35;;;;;;;28.52;40.95;100074.30;1740064;81;20166;-65
2021/08/11 05:41:53;;;;;;;2.30;1.77;;;;;;;28.35;41.85;100065.97;1736558;80;21014;-69
2021/08/11 05:44:19;;;;;;;2.98;1.55;;;;;;;28.39;41.61;100066.12;1737946;80;21075;-64
2021/08/11 05:46:45;;;;;;;1.57;1.20;;;;;;;28.31;41.66;100063.59;1696542;83;20977;-65
2021/08/11 05:49:11;;;;;;;3.72;2.27;;;;;;;28.25;42.12;100064.85;1685413;83;21111;-64
2021/08/11 05:51:39;;;;;;;3.55;2.05;;;;;;;28.29;42.26;100060.36;1690439;83;21382;-62
2021/08/11 05:54:07;;;;;;;3.05;1.37;;;;;;;28.36;42.30;100057.98;1682915;83;21011;-65
2021/08/11 05:56:34;;;;;;;3.60;1.70;;;;;;;28.37;42.37;100061.52;1703271;81;20992;-61
2021/08/11 05:59:00;;;;;;;1.80;1.57;;;;;;;28.32;42.70;100059.17;1695178;83;21537;-64
2021/08/11 06:01:26;;;;;;;4.83;1.95;;;;;;;28.40;42.70;100058.97;1682747;81;21159;-65
2021/08/11 06:04:00;;;;;;;3.55;1.85;;;;;;;28.60;42.57;100056.28;1714386;83;21064;-63
2021/08/11 06:06:27;;;;;;;3.10;1.55;;;;;;;28.87;42.23;100048.38;1700314;83;21123;-62
2021/08/11 06:08:55;;;;;;;4.97;1.30;;;;;;;28.89;42.12;100050.80;1699037;83;21064;-62
2021/08/11 06:11:22;;;;;;;2.52;2.17;;;;;;;28.69;42.63;100046.16;1673317;81;21099;-63
2021/08/11 06:13:49;;;;;;;2.98;1.10;;;;;;;28.69;42.92;100042.61;1700222;83;21022;-62
2021/08/11 06:16:15;;;;;;;2.05;1.05;;;;;;;28.73;42.92;100046.33;1691849;83;21418;-61
2021/08/11 06:18:44;;;;;;;3.75;1.95;;;;;;;28.73;43.18;100044.95;1696959;83;20941;-62
2021/08/11 06:21:11;;;;;;;3.40;1.55;;;;;;;28.81;43.11;100048.28;1702363;83;21140;-63
2021/08/11 06:23:37;;;;;;;3.77;1.40;;;;;;;28.82;43.49;100048.54;1725673;79;20998;-63
2021/08/11 06:26:02;;;;;;;4.72;1.15;;;;;;;29.00;43.09;100049.95;1731424;81;21205;-59
2021/08/11 06:28:30;;;;;;;5.62;1.27;;;;;;;29.12;43.18;100042.72;1721651;81;21059;-64
2021/08/11 06:30:56;;;;;;;3.72;1.70;;;;;;;29.16;43.21;100038.81;1714236;81;21164;-62
2021/08/11 06:33:22;;;;;;;6.90;1.40;;;;;;;29.09;43.41;100043.92;1716841;82;21815;-62
2021/08/11 06:35:49;;;;;;;1.22;1.12;;;;;;;29.15;43.45;100044.03;1677452;83;21024;-63
2021/08/11 06:38:17;;;;;;;2.27;1.30;;;;;;;29.14;43.64;100046.55;1660314;84;21562;-62
2021/08/11 06:40:43;;;;;;;4.05;1.40;;;;;;;29.11;43.43;100053.44;1670196;84;21535;-63
2021/08/11 06:43:10;;;;;;;2.83;1.17;;;;;;;28.97;43.85;100046.46;1670082;84;21114;-62
2021/08/11 06:45:36;;;;;;;1.32;1.20;;;;;;;28.96;44.25;100048.98;1666301;84;20976;-62
2021/08/11 06:48:05;;;;;;;4.45;1.27;;;;;;;29.11;43.57;100052.06;1666228;84;21586;-63
2021/08/11 06:50:31;;;;;;;1.40;0.90;;;;;;;29.26;43.26;100049.46;1666917;84;21645;-61
2021/08/11 06:52:57;;;;;;;1.10;1.00;;;;;;;29.38;43.35;100049.39;1672794;84;21106;-61
2021/08/11 06:55:23;;;;;;;2.42;1.05;;;;;;;29.45;42.94;100049.73;1673235;84;21218;-63
2021/08/11 06:57:50;;;;;;;1.50;1.00;;;;;;;29.61;43.09;100056.91;1669070;84;21024;-61
2021/08/11 07:00:19;;;;;;;2.05;1.22;;;;;;;29.78;42.17;100050.08;1639951;85;21108;-62
2021/08/11 07:02:47;;;;;;;5.50;1.20;;;;;;;29.67;42.47;100050.94;1644608;85;21053;-63
2021/08/11 07:05:13;;;;;;;3.62;0.93;;;;;;;29.53;43.03;100050.86;1641989;85;20982;-64
2021/08/11 07:07:40;;;;;;;3.95;1.02;;;;;;;29.44;42.89;100048.09;1654850;85;21131;-64
2021/08/11 07:10:15;;;;;;;2.52;0.70;;;;;;;29.50;42.83;100044.09;1659869;84;21127;-63
2021/08/11 07:12:43;;;;;;;1.35;1.00;;;;;;;29.46;43.05;100038.43;1659630;84;21017;-61
2021/08/11 07:15:11;;;;;;;1.40;0.72;;;;;;;29.34;43.58;100032.75;1664185;84;21047;-60
2021/08/11 07:17:48;;;;;;;0.60;0.60;;;;;;;29.33;44.03;100036.64;1665854;84;20977;-60
2021/08/11 07:20:16;;;;;;;4.58;0.50;;;;;;;29.18;43.52;100031.59;1635345;85;21083;-60
2021/08/11 07:22:42;;;;;;;1.82;0.20;;;;;;;28.91;44.00;100034.29;1640086;84;21136;-59
2021/08/11 07:25:10;;;;;;;0.78;0.30;;;;;;;28.63;42.86;100028.77;1667661;84;21047;-62
2021/08/11 07:27:36;;;;;;;5.28;0.40;;;;;;;28.44;43.37;100038.02;1676544;84;21460;-58
2021/08/11 07:30:04;;;;;;;1.80;0.20;;;;;;;28.11;43.42;100034.23;1662819;84;20987;-58
2021/08/11 07:32:30;;;;;;;0.68;0.33;;;;;;;27.95;43.32;100030.26;1661586;84;21087;-59
2021/08/11 07:34:57;;;;;;;4.08;0.50;;;;;;;27.81;43.98;100028.13;1652786;84;21028;-62
2021/08/11 07:37:23;;;;;;;0.78;0.42;;;;;;;27.69;44.42;100028.67;1637450;84;21115;-58
2021/08/11 07:39:49;;;;;;;2.08;0.35;;;;;;;27.62;44.34;100044.74;1618959;87;21062;-57
2021/08/11 07:42:15;;;;;;;1.75;0.28;;;;;;;27.61;44.18;100043.11;1621686;87;20975;-62
2021/08/11 07:44:41;;;;;;;2.75;0.40;;;;;;;27.60;43.73;100045.05;1602534;86;21508;-60
2021/08/11 07:47:07;;;;;;;4.37;0.40;;;;;;;27.55;43.40;100035.01;1601320;88;21400;-58
2021/08/11 07:49:33;;;;;;;0.68;0.40;;;;;;;27.61;43.80;100045.28;1581181;89;21120;-62
2021/08/11 07:51:59;;;;;;;1.37;0.35;;;;;;;27.57;43.62;100048.39;1573846;89;21038;-59
2021/08/11 07:54:25;;;;;;;2.42;0.30;;;;;;;27.53;43.91;100035.08;1594578;88;21109;-59
2021/08/11 07:56:51;;;;;;;2.60;0.68;;;;;;;27.60;42.97;100042.88;1559796;90;21167;-59
2021/08/11 07:59:17;;;;;;;1.10;0.25;;;;;;;27.63;42.29;100040.30;1575378;88;21034;-61
2021/08/11 08:01:43;;;;;;;1.60;0.35;;;;;;;27.61;42.29;100046.65;1587898;87;21404;-64
2021/08/11 08:04:09;;;;;;;0.60;0.40;;;;;;;27.62;42.47;100046.91;1584386;88;21118;-60
2021/08/11 08:06:36;;;;;;;2.37;0.50;;;;;;;27.63;43.05;100044.41;1581593;88;21653;-59
2021/08/11 08:09:03;;;;;;;1.95;0.20;;;;;;;27.61;42.65;100037.06;1585131;88;21057;-64
2021/08/11 08:11:29;;;;;;;2.47;0.20;;;;;;;27.52;41.72;100039.75;1586039;88;21134;-59
2021/08/11 08:13:55;;;;;;;2.87;0.28;;;;;;;27.45;41.50;100039.93;1588518;88;21094;-58
2021/08/11 08:16:22;;;;;;;0.75;0.30;;;;;;;27.39;40.86;100028.29;1589057;88;21128;-59
2021/08/11 08:18:48;;;;;;;2.50;0.47;;;;;;;27.32;40.56;100029.27;1587496;88;21076;-60
2021/08/11 08:21:14;;;;;;;0.85;0.23;;;;;;;27.28;40.62;100035.91;1585030;88;21143;-60
2021/08/11 08:23:41;;;;;;;0.60;0.10;;;;;;;27.26;40.88;100042.25;1589181;88;21044;-59
2021/08/11 08:26:07;;;;;;;0.50;0.20;;;;;;;27.21;40.41;100043.69;1584443;89;21021;-58
2021/08/11 08:28:33;;;;;;;3.85;0.30;;;;;;;27.19;40.57;100039.09;1591396;88;21080;-57
2021/08/11 08:30:59;;;;;;;1.65;0.40;;;;;;;27.15;40.93;100035.35;1579455;88;21111;-58
2021/08/11 08:33:25;;;;;;;0.98;0.25;;;;;;;27.15;41.69;100036.72;1589290;87;21059;-64
2021/08/11 08:35:51;;;;;;;0.60;0.30;;;;;;;27.09;40.78;100029.75;1596242;87;21586;-64
2021/08/11 08:38:19;;;;;;;0.45;0.40;;;;;;;26.95;40.13;100023.71;1594680;88;21140;-64
2021/08/11 08:40:46;;;;;;;0.65;0.35;;;;;;;26.88;38.96;100030.70;1593948;88;21101;-64
2021/08/11 08:43:13;;;;;;;2.75;0.30;;;;;;;26.87;39.22;100023.07;1620314;87;21040;-66
2021/08/11 08:45:44;;;;;;;1.70;0.50;;;;;;;26.90;40.24;100012.90;1621066;87;21007;-64
2021/08/11 08:48:11;;;;;;;0.30;0.30;;;;;;;26.94;40.54;100022.11;1602662;88;21099;-64
2021/08/11 08:50:37;;;;;;;1.98;0.30;;;;;;;27.06;41.19;100018.04;1613640;87;21080;-67
2021/08/11 08:53:04;;;;;;;1.55;0.30;;;;;;;27.18;40.32;100014.20;1594294;88;21654;-65
2021/08/11 08:55:33;;;;;;;4.05;0.47;;;;;;;27.07;39.60;99984.92;1606441;88;21016;-67
2021/08/11 08:58:02;;;;;;;3.58;0.40;;;;;;;27.42;37.23;100019.44;1622177;86;21011;-67
2021/08/11 09:00:32;;;;;;;4.35;0.20;;;;;;;27.46;36.67;100016.90;1606633;87;20999;-66
2021/08/11 09:02:58;;;;;;;0.75;0.50;;;;;;;27.45;36.28;100020.77;1618155;87;21134;-66
2021/08/11 09:05:26;;;;;;;0.75;0.28;;;;;;;27.43;37.53;100013.44;1618495;87;20963;-66
2021/08/11 09:07:52;;;;;;;5.28;0.50;;;;;;;27.37;37.63;100008.07;1614346;87;21112;-66
2021/08/11 09:10:28;;;;;;;0.40;0.40;;;;;;;27.38;36.99;100015.14;1610674;86;21015;-66
2021/08/11 09:13:05;;;;;;;3.87;0.40;;;;;;;27.41;36.54;100014.27;1639340;86;21041;-67
2021/08/11 09:15:41;;;;;;;2.67;0.40;;;;;;;27.30;36.10;100003.58;1668645;85;21515;-66
2021/08/11 09:18:17;;;;;;;0.82;0.40;;;;;;;27.25;36.97;99997.38;1659071;85;21039;-66
2021/08/11 09:21:04;;;;;;;2.40;0.60;;;;;;;27.37;36.83;99997.12;1636246;85;20980;-67
2021/08/11 09:23:42;;;;;;;4.05;0.40;;;;;;;27.46;37.58;99999.91;1630924;87;21024;-66
2021/08/11 09:26:12;;;;;;;0.72;0.40;;;;;;;27.47;38.56;99984.32;1624231;88;21534;-66
2021/08/11 09:28:44;;;;;;;1.17;0.57;;;;;;;27.45;38.76;99992.03;1621914;87;21088;-67
2021/08/11 09:31:32;;;;;;;0.50;0.50;;;;;;;27.51;38.66;99986.69;1615848;87;21097;-66
2021/08/11 09:34:04;;;;;;;1.15;0.57;;;;;;;27.61;38.73;99991.09;1623164;87;21041;-66
2021/08/11 09:36:51;;;;;;;0.35;0.35;;;;;;;27.69;38.51;99983.49;1645166;86;21549;-66
2021/08/11 09:39:19;;;;;;;2.30;0.50;;;;;;;27.74;37.81;99990.22;1618744;87;21596;-66
2021/08/11 09:42:05;;;;;;;1.17;0.33;;;;;;;27.80;38.03;99990.91;1627441;87;21039;-66
2021/08/11 09:44:33;;;;;;;0.82;0.40;;;;;;;27.88;37.91;99990.17;1637576;86;21008;-66
2021/08/11 09:47:14;;;;;;;0.50;0.37;;;;;;;27.98;37.66;99990.49;1648484;86;21196;-66
2021/08/11 09:49:40;;;;;;;2.95;0.53;;;;;;;28.05;37.34;99976.59;1640250;86;21535;-65
2021/08/11 09:52:09;;;;;;;1.22;0.50;;;;;;;28.02;37.25;99984.63;1643203;86;20972;-66
2021/08/11 09:54:35;;;;;;;0.72;0.53;;;;;;;27.98;37.46;99989.92;1639037;87;21018;-66
2021/08/11 09:57:01;;;;;;;0.70;0.30;;;;;;;28.04;37.47;99994.14;1649330;86;21016;-65
2021/08/11 09:59:27;;;;;;;0.50;0.50;;;;;;;28.10;37.38;99988.77;1643818;86;21379;-65
2021/08/11 10:01:59;;;;;;;0.68;0.40;;;;;;;28.08;36.86;99983.36;1644188;86;20999;-67
2021/08/11 10:04:31;;;;;;;1.75;0.35;;;;;;;28.00;36.31;99978.09;1644106;86;21042;-66
2021/08/11 10:07:00;;;;;;;1.67;0.28;;;;;;;27.96;36.56;99984.75;1633752;86;21513;-66
2021/08/11 10:09:28;;;;;;;1.10;0.40;;;;;;;28.01;36.81;99987.11;1619897;87;21079;-66
2021/08/11 10:11:59;;;;;;;0.57;0.57;;;;;;;28.11;36.39;99978.64;1617512;87;21088;-66
2021/08/11 10:14:31;;;;;;;0.55;0.40;;;;;;;28.18;36.02;99979.00;1633459;86;21136;-67
2021/08/11 10:16:59;;;;;;;0.30;0.30;;;;;;;28.19;35.41;99971.58;1662608;85;21497;-66
2021/08/11 10:19:29;;;;;;;0.85;0.30;;;;;;;28.12;35.92;99968.73;1662921;85;21007;-66
2021/08/11 10:22:08;;;;;;;3.45;0.88;;;;;;;28.12;35.95;99967.91;1624839;86;21133;-66
2021/08/11 10:24:36;;;;;;;0.80;0.42;;;;;;;28.18;35.80;99969.41;1653125;85;21011;-66
2021/08/11 10:27:08;;;;;;;1.40;0.30;;;;;;;28.26;35.60;99965.09;1664342;85;21035;-66
2021/08/11 10:29:37;;;;;;;0.40;0.37;;;;;;;28.27;35.20;99963.95;1621258;88;21022;-66
2021/08/11 10:32:06;;;;;;;0.35;0.28;;;;;;;28.25;35.60;99964.26;1663871;85;21593;-66
2021/08/11 10:34:34;;;;;;;3.50;0.72;;;;;;;28.29;35.95;99958.42;1650521;85;21510;-67
2021/08/11 10:37:00;;;;;;;2.05;0.20;;;;;;;28.32;35.35;99954.23;1662051;85;21009;-67
2021/08/11 10:39:28;;;;;;;4.17;0.60;;;;;;;28.30;34.77;99953.73;1655420;85;21494;-66
2021/08/11 10:42:02;;;;;;;1.60;0.62;;;;;;;28.26;34.96;99957.67;1625089;87;20971;-66
2021/08/11 10:44:29;;;;;;;1.47;0.62;;;;;;;28.26;35.03;99952.19;1656788;85;21028;-67
2021/08/11 10:47:01;;;;;;;0.47;0.47;;;;;;;28.32;35.54;99950.11;1621315;86;21125;-66
2021/08/11 10:49:30;;;;;;;4.75;0.60;;;;;;;28.43;34.87;99945.96;1624371;87;21636;-68
2021/08/11 10:52:08;;;;;;;0.50;0.40;;;;;;;28.50;33.30;99944.94;1655477;85;21503;-67
2021/08/11 10:54:55;;;;;;;6.22;0.50;;;;;;;28.52;33.10;99946.03;1657154;85;20962;-67
2021/08/11 10:57:42;;;;;;;0.33;0.25;;;;;;;28.50;33.61;99938.09;1655831;84;21073;-66
2021/08/11 11:00:22;;;;;;;1.47;0.33;;;;;;;28.57;33.21;99939.58;1637773;86;21146;-67
2021/08/11 11:02:52;;;;;;;0.62;0.62;;;;;;;28.61;32.80;99934.50;1642164;85;21024;-67
2021/08/11 11:05:27;;;;;;;0.30;0.30;;;;;;;28.62;32.05;99938.06;1651476;85;21040;-67
2021/08/11 11:08:23;;;;;;;0.50;0.23;;;;;;;28.64;32.10;99943.46;1636467;85;21021;-67
2021/08/11 11:10:47;;;;;;;0.23;0.20;;;;;;;28.69;31.47;99936.47;1642416;85;21050;-68
2021/08/11 11:13:33;;;;;;;1.22;0.30;;;;;;;28.73;31.94;99925.66;1651987;85;21080;-67
2021/08/11 11:16:08;;;;;;;0.40;0.40;;;;;;;28.80;32.32;99923.80;1616890;87;21110;-67
2021/08/11 11:18:29;;;;;;;0.75;0.40;;;;;;;28.87;31.11;99920.02;1619647;87;21062;-65
2021/08/11 11:21:01;;;;;;;0.55;0.25;;;;;;;28.89;31.27;99921.31;1624409;87;21536;-66
2021/08/11 11:23:45;;;;;;;3.22;0.20;;;;;;;28.95;30.00;99919.22;1639769;85;20993;-66
2021/08/11 11:26:15;;;;;;;3.60;0.57;;;;;;;28.95;29.60;99923.91;1650042;85;21021;-67
2021/08/11 11:29:04;;;;;;;1.27;0.25;;;;;;;28.86;29.17;99929.40;1651502;85;21120;-67
2021/08/11 11:31:51;;;;;;;0.35;0.30;;;;;;;28.75;29.99;99921.23;1647722;85;21617;-66
2021/08/11 11:34:36;;;;;;;0.30;0.30;;;;;;;28.68;30.35;99922.50;1646689;85;21060;-67
2021/08/11 11:37:07;;;;;;;2.25;0.20;;;;;;;28.67;30.24;99925.02;1644092;85;21577;-68
2021/08/11 11:39:44;;;;;;;0.88;0.40;;;;;;;28.69;30.10;99927.44;1655039;85;20977;-67